Terminal Aerodrome Forecast
Issued by NWS Shreveport, LA

Home | Current Version | Previous Version | Text Only | Print | Product List | Glossary On
Versions: 1 2 3 4 5 6 7 8 9 10 11 12 13 14 15 16 17 18 19 20
934
FTUS44 KSHV 221720
TAFLFK
TAF
KLFK 221720Z 2218/2318 29018G30KT P6SM SCT050
      TEMPO 2220/2224 BKN030
     FM230200 33014G24KT P6SM SKC
     FM230600 33012KT P6SM SKC
     FM230900 32010KT P6SM SKC
     FM231200 31008KT P6SM SKC=

USA.gov is the U.S. government's official web portal to all federal, state and local government web resources and services.